createdAt,value
2022-08-04T00:01:43.003Z,4.65
2022-08-04T00:04:25.316Z,5.75
2022-08-04T00:07:19.599Z,5.75
2022-08-04T00:10:07.154Z,5.25
2022-08-04T00:12:39.712Z,4.82
2022-08-04T00:15:07.320Z,5.38
2022-08-04T00:17:40.713Z,4.97
2022-08-04T00:20:09.960Z,5.10
2022-08-04T00:22:40.190Z,4.82
2022-08-04T00:25:06.966Z,4.85
2022-08-04T00:27:36.404Z,4.72
2022-08-04T00:30:03.981Z,4.40
2022-08-04T00:32:34.416Z,4.43
2022-08-04T00:35:02.180Z,4.93
2022-08-04T00:37:29.166Z,4.97
2022-08-04T00:39:56.589Z,4.40
2022-08-04T00:42:49.327Z,5.22
2022-08-04T00:46:18.044Z,4.65
2022-08-04T00:49:27.088Z,5.00
2022-08-04T00:52:31.326Z,4.97
2022-08-04T00:55:29.993Z,4.60
2022-08-04T00:58:23.656Z,4.93
2022-08-04T01:01:07.378Z,4.70
2022-08-04T01:04:11.693Z,5.13
2022-08-04T01:06:59.536Z,4.83
2022-08-04T01:09:55.354Z,4.95
2022-08-04T01:12:48.574Z,5.22
2022-08-04T01:15:59.357Z,5.80
2022-08-04T01:18:25.628Z,5.55
2022-08-04T01:21:51.274Z,5.82
2022-08-04T01:24:30.517Z,6.07
2022-08-04T01:27:41.848Z,5.70
2022-08-04T01:30:08.524Z,5.43
2022-08-04T01:32:39.451Z,5.65
2022-08-04T01:35:22.145Z,5.35
2022-08-04T01:38:21.428Z,5.50
2022-08-04T01:40:52.708Z,5.70
2022-08-04T01:43:20.525Z,5.93
2022-08-04T01:45:51.676Z,5.93
2022-08-04T01:48:25.239Z,5.80
2022-08-04T01:50:54.210Z,5.47
2022-08-04T01:53:21.389Z,5.10
2022-08-04T01:55:55.157Z,5.43
2022-08-04T01:58:23.971Z,5.38
2022-08-04T02:01:07.712Z,5.28
2022-08-04T02:04:21.228Z,5.13
2022-08-04T02:06:49.653Z,5.40
2022-08-04T02:09:28.324Z,5.40
2022-08-04T02:12:19.024Z,5.10
2022-08-04T02:14:57.157Z,5.13
2022-08-04T02:17:36.990Z,5.43
2022-08-04T02:20:09.587Z,5.43
2022-08-04T02:22:48.242Z,4.88
2022-08-04T02:25:20.229Z,5.38
2022-08-04T02:28:04.593Z,5.43
2022-08-04T02:30:34.640Z,5.28
2022-08-04T02:33:04.225Z,5.60
2022-08-04T02:35:37.091Z,5.90
2022-08-04T02:38:30.533Z,5.35
2022-08-04T02:41:00.321Z,5.50
2022-08-04T02:43:51.469Z,5.15
2022-08-04T02:46:18.326Z,5.00
2022-08-04T02:48:46.847Z,5.03
2022-08-04T02:51:14.698Z,5.50
2022-08-04T02:53:42.585Z,6.05
2022-08-04T02:56:09.823Z,5.57
2022-08-04T02:58:37.645Z,5.32
2022-08-04T03:01:05.124Z,5.30
2022-08-04T03:03:41.481Z,5.40
2022-08-04T03:06:30.610Z,5.03
2022-08-04T03:09:36.164Z,5.40
2022-08-04T03:12:41.491Z,4.95
2022-08-04T03:15:26.976Z,5.47
2022-08-04T03:18:22.995Z,4.95
2022-08-04T03:21:22.730Z,5.35
2022-08-04T03:24:48.852Z,5.63
2022-08-04T03:27:54.888Z,5.55
2022-08-04T03:30:38.570Z,5.50
2022-08-04T03:37:05.547Z,5.60
2022-08-04T03:40:40.263Z,6.03
2022-08-04T03:43:59.035Z,6.25
2022-08-04T03:46:57.618Z,5.90
2022-08-04T03:50:01.500Z,5.70
2022-08-04T03:53:02.865Z,6.20
2022-08-04T03:55:48.835Z,5.80
2022-08-04T03:58:44.064Z,5.68
2022-08-04T04:02:02.042Z,6.30
2022-08-04T04:04:47.776Z,5.78
2022-08-04T04:11:31.885Z,5.68
2022-08-04T04:14:19.914Z,5.88
2022-08-04T04:17:37.686Z,6.13
2022-08-04T04:20:30.560Z,5.53
2022-08-04T04:23:16.571Z,5.68
2022-08-04T04:26:28.232Z,5.60
2022-08-04T04:29:03.886Z,6.07
2022-08-04T04:31:38.430Z,6.38
2022-08-04T04:34:21.161Z,6.20
2022-08-04T04:37:00.887Z,6.13
2022-08-04T04:43:17.434Z,6.78
2022-08-04T04:46:04.306Z,6.32
2022-08-04T04:48:57.163Z,6.75
2022-08-04T04:51:29.518Z,7.00
2022-08-04T04:54:38.990Z,6.70
2022-08-04T04:57:11.482Z,6.90
2022-08-04T04:59:39.809Z,7.28
2022-08-04T05:02:44.383Z,6.90
2022-08-04T05:05:48.648Z,6.55
2022-08-04T05:09:11.173Z,6.90
2022-08-04T05:14:31.693Z,7.55
2022-08-04T05:15:05.835Z,7.35
2022-08-04T05:17:39.474Z,7.00
2022-08-04T05:20:17.584Z,6.28
2022-08-04T05:23:03.718Z,6.70
2022-08-04T05:25:42.061Z,7.00
2022-08-04T05:28:42.643Z,6.72
2022-08-04T05:31:13.378Z,7.00
2022-08-04T05:33:42.729Z,6.43
2022-08-04T05:36:29.392Z,6.65
2022-08-04T05:39:05.112Z,6.43
2022-08-04T05:41:46.343Z,6.85
2022-08-04T05:44:22.442Z,6.75
2022-08-04T05:46:54.063Z,7.22
2022-08-04T05:49:23.299Z,6.78
2022-08-04T05:51:50.275Z,6.75
2022-08-04T05:54:17.996Z,6.38
2022-08-04T05:56:44.725Z,6.50
2022-08-04T05:59:11.701Z,6.38
2022-08-04T06:01:56.735Z,6.15
2022-08-04T06:04:32.436Z,5.63
2022-08-04T06:06:59.245Z,6.10
2022-08-04T06:09:25.882Z,5.65
2022-08-04T06:12:02.167Z,6.07
2022-08-04T06:14:36.066Z,5.85
2022-08-04T06:17:05.382Z,5.80
2022-08-04T06:19:59.256Z,5.45
2022-08-04T06:22:33.505Z,6.70
2022-08-04T06:25:01.640Z,6.00
2022-08-04T06:27:29.215Z,6.15
2022-08-04T06:29:57.636Z,6.25
2022-08-04T06:32:33.800Z,6.20
2022-08-04T06:35:05.360Z,6.03
2022-08-04T06:37:43.141Z,6.03
2022-08-04T06:40:29.845Z,5.45
2022-08-04T06:42:57.203Z,5.03
2022-08-04T06:45:24.359Z,5.28
2022-08-04T06:47:51.044Z,4.70
2022-08-04T06:51:29.388Z,4.30
2022-08-04T06:53:04.993Z,5.00
2022-08-04T06:55:32.118Z,4.45
2022-08-04T06:58:03.156Z,4.15
2022-08-04T07:00:31.363Z,3.85
2022-08-04T07:02:59.020Z,4.13
2022-08-04T07:05:25.741Z,4.10
2022-08-04T07:07:56.893Z,3.97
2022-08-04T07:10:26.030Z,4.00
2022-08-04T07:12:54.183Z,3.60
2022-08-04T07:15:21.454Z,3.67
2022-08-04T07:17:50.207Z,3.75
2022-08-04T07:20:35.811Z,3.45
2022-08-04T07:26:00.166Z,3.63
2022-08-04T07:28:23.518Z,3.85
2022-08-04T07:30:54.975Z,3.72
2022-08-04T07:33:22.423Z,3.45
2022-08-04T07:36:04.448Z,3.30
2022-08-04T07:38:46.253Z,3.42
2022-08-04T07:41:37.258Z,3.38
2022-08-04T07:44:04.665Z,3.63
2022-08-04T07:46:31.665Z,3.50
2022-08-04T07:49:00.258Z,3.22
2022-08-04T07:51:27.216Z,3.10
2022-08-04T07:53:56.473Z,2.90
2022-08-04T07:56:23.516Z,3.00
2022-08-04T07:58:50.635Z,2.90
2022-08-04T08:01:17.581Z,3.40
2022-08-04T08:03:44.279Z,3.10
2022-08-04T08:06:30.558Z,2.85
2022-08-04T08:08:59.598Z,3.03
2022-08-04T08:12:37.543Z,2.67
2022-08-04T08:14:16.552Z,2.92
2022-08-04T08:16:43.507Z,2.90
2022-08-04T08:19:10.527Z,3.10
2022-08-04T08:21:58.647Z,3.03
2022-08-04T08:24:24.142Z,2.83
2022-08-04T08:26:50.713Z,2.80
2022-08-04T08:29:17.483Z,2.50
2022-08-04T08:31:56.487Z,2.78
2022-08-04T08:34:29.355Z,2.53
2022-08-04T08:37:12.288Z,2.55
2022-08-04T08:39:58.279Z,2.30
2022-08-04T08:43:03.711Z,2.80
2022-08-04T08:46:38.712Z,2.25
2022-08-04T08:50:03.274Z,2.50
2022-08-04T08:53:01.439Z,2.40
2022-08-04T08:55:41.297Z,2.53
2022-08-04T08:58:29.317Z,2.42
2022-08-04T09:01:20.103Z,2.20
2022-08-04T09:04:01.762Z,1.90
2022-08-04T09:07:01.356Z,2.30
2022-08-04T09:09:41.136Z,2.10
2022-08-04T09:12:28.552Z,2.20
2022-08-04T09:15:06.296Z,2.00
2022-08-04T09:17:43.512Z,2.08
2022-08-04T09:20:34.101Z,2.13
2022-08-04T09:23:08.181Z,1.80
2022-08-04T09:25:39.931Z,1.92
2022-08-04T09:28:43.731Z,1.77
2022-08-04T09:31:11.869Z,2.05
2022-08-04T09:34:06.341Z,2.10
2022-08-04T09:36:37.650Z,2.40
2022-08-04T09:39:27.589Z,1.70
2022-08-04T09:42:36.177Z,1.80
2022-08-04T09:45:26.489Z,1.80
2022-08-04T09:48:02.988Z,1.77
2022-08-04T09:50:38.719Z,1.65
2022-08-04T09:54:03.036Z,2.10
2022-08-04T09:56:42.215Z,1.80
2022-08-04T09:59:31.978Z,1.70
2022-08-04T10:02:00.449Z,1.67
2022-08-04T10:04:31.374Z,1.75
2022-08-04T10:07:19.900Z,1.27
2022-08-04T10:13:14.714Z,1.60
2022-08-04T10:15:53.483Z,1.58
2022-08-04T10:18:42.827Z,1.60
2022-08-04T10:21:20.174Z,1.60
2022-08-04T10:24:19.165Z,1.58
2022-08-04T10:27:30.986Z,1.75
2022-08-04T10:30:14.422Z,1.40
2022-08-04T10:33:04.677Z,1.50
2022-08-04T10:35:52.556Z,1.52
2022-08-04T10:38:26.986Z,1.52
2022-08-04T10:41:02.379Z,1.52
2022-08-04T10:44:11.572Z,1.60
2022-08-04T10:46:46.525Z,1.42
2022-08-04T10:49:37.894Z,1.40
2022-08-04T10:52:13.027Z,1.20
2022-08-04T10:54:50.665Z,1.40
2022-08-04T10:57:25.017Z,1.40
2022-08-04T11:00:05.126Z,1.45
2022-08-04T11:02:43.531Z,1.50
2022-08-04T11:05:44.270Z,1.50
2022-08-04T11:08:22.023Z,1.42
2022-08-04T11:12:01.092Z,1.30
2022-08-04T11:14:24.783Z,1.40
2022-08-04T11:17:04.543Z,1.20
2022-08-04T11:19:45.041Z,1.33
2022-08-04T11:22:26.098Z,1.10
2022-08-04T11:25:14.728Z,1.40
2022-08-04T11:27:56.879Z,1.17
2022-08-04T11:30:25.329Z,1.25
2022-08-04T11:33:03.138Z,1.10
2022-08-04T11:35:38.258Z,1.30
2022-08-04T11:38:45.437Z,1.10
2022-08-04T11:41:22.658Z,1.20
2022-08-04T11:44:03.146Z,1.10
2022-08-04T11:46:38.603Z,1.20
2022-08-04T11:49:15.334Z,1.00
2022-08-04T11:51:43.402Z,1.10
2022-08-04T11:54:11.446Z,1.05
2022-08-04T11:56:38.480Z,1.20
2022-08-04T11:59:07.714Z,1.00
2022-08-04T12:01:59.173Z,1.10
2022-08-04T12:04:37.169Z,1.20
2022-08-04T12:07:31.649Z,1.10
2022-08-04T12:10:12.393Z,1.00
2022-08-04T12:13:02.464Z,1.00
2022-08-04T12:15:44.658Z,1.00
2022-08-04T12:18:21.692Z,1.20
2022-08-04T12:20:50.504Z,1.10
2022-08-04T12:23:25.034Z,1.10
2022-08-04T12:25:55.358Z,1.00
2022-08-04T12:28:52.440Z,1.20
2022-08-04T12:31:31.215Z,1.25
2022-08-04T12:34:08.718Z,1.08
2022-08-04T12:37:23.902Z,1.30
2022-08-04T12:40:27.623Z,1.00
2022-08-04T12:42:59.828Z,1.20
2022-08-04T12:45:27.267Z,1.30
2022-08-04T12:47:57.648Z,1.23
2022-08-04T12:50:24.627Z,1.00
2022-08-04T12:53:02.605Z,1.25
2022-08-04T12:55:32.094Z,1.35
2022-08-04T12:57:58.964Z,1.10
2022-08-04T13:00:39.682Z,1.17
2022-08-04T13:03:11.485Z,1.58
2022-08-04T13:05:40.879Z,1.27
2022-08-04T13:08:09.688Z,1.17
2022-08-04T13:10:41.629Z,1.50
2022-08-04T13:13:15.538Z,1.20
2022-08-04T13:15:47.401Z,1.30
2022-08-04T13:18:28.882Z,2.97
2022-08-04T13:20:58.192Z,3.50
2022-08-04T13:23:26.572Z,4.65
2022-08-04T13:26:43.213Z,1.30
2022-08-04T13:28:44.245Z,1.20
2022-08-04T13:31:16.732Z,1.27
2022-08-04T13:33:47.145Z,1.23
2022-08-04T13:36:15.293Z,1.20
2022-08-04T13:38:56.734Z,1.10
2022-08-04T13:41:27.608Z,1.30
2022-08-04T13:44:18.089Z,1.20
2022-08-04T13:46:50.915Z,1.10
2022-08-04T13:52:11.501Z,1.15
2022-08-04T13:54:46.619Z,1.20
2022-08-04T13:57:30.804Z,1.08
2022-08-04T14:00:06.038Z,1.27
2022-08-04T14:02:47.629Z,1.30
2022-08-04T14:05:28.109Z,1.58
2022-08-04T14:08:13.943Z,1.30
2022-08-04T14:10:40.829Z,1.20
2022-08-04T14:13:08.103Z,1.17
2022-08-04T14:16:01.657Z,1.95
2022-08-04T14:18:29.752Z,1.27
2022-08-04T14:21:11.533Z,1.20
2022-08-04T14:23:58.507Z,1.35
2022-08-04T14:26:34.907Z,1.20
2022-08-04T14:29:26.596Z,1.00
2022-08-04T14:32:01.120Z,1.02
2022-08-04T14:34:30.086Z,1.10
2022-08-04T14:37:17.368Z,1.15
2022-08-04T14:40:08.230Z,1.15
2022-08-04T14:42:54.406Z,1.27
2022-08-04T14:45:54.226Z,1.30
2022-08-04T14:48:22.116Z,1.17
2022-08-04T14:50:50.250Z,1.20
2022-08-04T14:53:19.060Z,1.27
2022-08-04T14:55:48.379Z,1.30
2022-08-04T14:58:36.511Z,1.33
2022-08-04T15:01:10.604Z,1.00
2022-08-04T15:03:50.078Z,1.10
2022-08-04T15:06:22.681Z,1.20
2022-08-04T15:08:54.619Z,1.13
2022-08-04T15:11:23.187Z,1.30
2022-08-04T15:13:51.776Z,1.40
2022-08-04T15:16:18.920Z,1.48
2022-08-04T15:18:49.648Z,1.58
2022-08-04T15:21:17.200Z,1.30
2022-08-04T15:23:44.126Z,1.17
2022-08-04T15:26:14.193Z,1.02
2022-08-04T15:28:42.723Z,12.77
2022-08-04T15:31:10.486Z,10.70
2022-08-04T15:33:57.010Z,1.20
2022-08-04T15:37:01.815Z,1.10
2022-08-04T15:39:38.833Z,1.20
2022-08-04T15:42:23.317Z,1.40
2022-08-04T15:45:04.983Z,1.48
2022-08-04T15:47:31.912Z,1.40
2022-08-04T15:50:07.655Z,1.30
2022-08-04T15:53:13.030Z,1.40
2022-08-04T15:55:44.222Z,1.15
2022-08-04T15:58:16.161Z,3.28
2022-08-04T16:01:15.597Z,2.50
2022-08-04T16:03:58.366Z,1.30
2022-08-04T16:06:47.607Z,1.33
2022-08-04T16:09:45.261Z,1.30
2022-08-04T16:12:54.483Z,1.30
2022-08-04T16:15:47.110Z,1.55
2022-08-04T16:18:46.673Z,1.20
2022-08-04T16:21:19.370Z,1.17
2022-08-04T16:24:18.302Z,1.30
2022-08-04T16:26:54.201Z,1.40
2022-08-04T16:29:47.325Z,1.30
2022-08-04T16:32:22.974Z,4.35
2022-08-04T16:34:56.508Z,1.40
2022-08-04T16:40:38.855Z,1.48
2022-08-04T16:43:13.233Z,1.40
2022-08-04T16:45:42.647Z,1.65
2022-08-04T16:48:10.619Z,1.63
2022-08-04T16:51:16.907Z,1.70
2022-08-04T16:53:52.191Z,1.85
2022-08-04T16:56:30.313Z,1.75
2022-08-04T16:59:08.612Z,2.03
2022-08-04T17:01:35.412Z,2.00
2022-08-04T17:04:07.245Z,1.70
2022-08-04T17:06:36.573Z,1.80
2022-08-04T17:09:13.673Z,1.70
2022-08-04T17:11:42.474Z,1.88
2022-08-04T17:14:09.414Z,1.60
2022-08-04T17:16:39.804Z,2.25
2022-08-04T17:19:23.727Z,1.90
2022-08-04T17:22:00.336Z,2.00
2022-08-04T17:24:30.125Z,2.00
2022-08-04T17:26:57.928Z,2.10
2022-08-04T17:29:42.981Z,2.00
2022-08-04T17:32:14.291Z,1.77
2022-08-04T17:34:41.055Z,1.70
2022-08-04T17:37:38.848Z,1.70
2022-08-04T17:40:13.263Z,1.67
2022-08-04T17:42:41.749Z,1.50
2022-08-04T17:45:50.091Z,1.40
2022-08-04T17:47:58.285Z,1.80
2022-08-04T17:50:30.291Z,1.45
2022-08-04T17:53:11.456Z,1.60
2022-08-04T17:55:43.035Z,1.38
2022-08-04T17:58:21.057Z,1.33
2022-08-04T18:01:25.262Z,1.30
2022-08-04T18:03:53.404Z,1.30
2022-08-04T18:06:25.425Z,1.52
2022-08-04T18:08:57.587Z,1.45
2022-08-04T18:11:29.810Z,1.30
2022-08-04T18:14:09.062Z,1.30
2022-08-04T18:16:45.704Z,1.50
2022-08-04T18:19:14.650Z,1.50
2022-08-04T18:21:46.333Z,1.40
2022-08-04T18:24:34.276Z,1.60
2022-08-04T18:27:06.709Z,1.40
2022-08-04T18:29:34.454Z,1.58
2022-08-04T18:32:06.681Z,1.52
2022-08-04T18:34:35.896Z,1.48
2022-08-04T18:38:03.313Z,1.73
2022-08-04T18:40:09.734Z,1.60
2022-08-04T18:42:41.299Z,1.60
2022-08-04T18:45:10.042Z,1.50
2022-08-04T18:47:59.382Z,1.50
2022-08-04T18:50:58.861Z,1.65
2022-08-04T18:53:11.394Z,1.45
2022-08-04T18:55:57.047Z,1.70
2022-08-04T18:58:26.736Z,1.58
2022-08-04T19:00:56.150Z,1.50
2022-08-04T19:03:30.745Z,1.70
2022-08-04T19:06:01.593Z,1.65
2022-08-04T19:08:35.560Z,1.70
2022-08-04T19:11:36.926Z,1.52
2022-08-04T19:13:59.457Z,1.48
2022-08-04T19:16:34.615Z,1.60
2022-08-04T19:19:03.672Z,1.60
2022-08-04T19:22:01.085Z,1.77
2022-08-04T19:27:08.683Z,1.90
2022-08-04T19:29:41.123Z,2.22
2022-08-04T19:32:15.027Z,2.20
2022-08-04T19:34:46.091Z,2.28
2022-08-04T19:37:57.271Z,2.38
2022-08-04T19:40:05.897Z,2.22
2022-08-04T19:42:32.546Z,2.30
2022-08-04T19:44:59.347Z,2.38
2022-08-04T19:48:16.307Z,2.40
2022-08-04T19:50:13.099Z,2.60
2022-08-04T19:52:39.770Z,2.65
2022-08-04T19:55:17.963Z,2.28
2022-08-04T19:57:46.373Z,2.60
2022-08-04T20:00:26.194Z,2.60
2022-08-04T20:03:01.151Z,2.50
2022-08-04T20:05:52.796Z,3.33
2022-08-04T20:08:15.446Z,3.00
2022-08-04T20:10:51.134Z,3.08
2022-08-04T20:13:18.326Z,3.88
2022-08-04T20:15:55.293Z,4.07
2022-08-04T20:18:35.976Z,4.35
2022-08-04T20:21:18.845Z,4.00
2022-08-04T20:23:48.230Z,3.53
2022-08-04T20:26:17.089Z,3.70
2022-08-04T20:28:45.858Z,3.50
2022-08-04T20:31:18.699Z,3.42
2022-08-04T20:33:53.467Z,2.40
2022-08-04T20:36:20.931Z,2.08
2022-08-04T20:38:51.951Z,2.13
2022-08-04T20:41:19.676Z,1.95
2022-08-04T20:43:46.595Z,2.20
2022-08-04T20:46:18.024Z,1.70
2022-08-04T20:48:45.461Z,2.33
2022-08-04T20:51:17.917Z,2.10
2022-08-04T20:53:52.963Z,1.92
2022-08-04T20:56:30.927Z,1.85
2022-08-04T20:58:59.333Z,1.60
2022-08-04T21:01:29.401Z,2.13
2022-08-04T21:04:27.418Z,2.08
2022-08-04T21:06:57.372Z,2.30
2022-08-04T21:09:26.512Z,2.35
2022-08-04T21:12:05.266Z,2.25
2022-08-04T21:14:31.867Z,2.35
2022-08-04T21:16:59.080Z,2.30
2022-08-04T21:19:26.973Z,2.50
2022-08-04T21:21:53.860Z,2.20
2022-08-04T21:24:25.875Z,2.35
2022-08-04T21:26:56.698Z,2.40
2022-08-04T21:29:24.617Z,2.38
2022-08-04T21:32:07.533Z,2.30
2022-08-04T21:34:39.330Z,2.33
2022-08-04T21:37:09.240Z,2.60
2022-08-04T21:39:50.005Z,2.55
2022-08-04T21:42:29.539Z,2.40
2022-08-04T21:44:57.570Z,2.20
2022-08-04T21:47:24.167Z,2.53
2022-08-04T21:49:56.391Z,2.38
2022-08-04T21:52:23.894Z,2.30
2022-08-04T21:54:54.790Z,2.58
2022-08-04T21:57:24.653Z,2.50
2022-08-04T21:59:52.358Z,2.53
2022-08-04T22:02:18.993Z,2.45
2022-08-04T22:04:45.671Z,2.50
2022-08-04T22:07:12.265Z,2.47
2022-08-04T22:10:00.107Z,2.53
2022-08-04T22:12:27.247Z,2.50
2022-08-04T22:14:59.442Z,2.60
2022-08-04T22:17:35.079Z,2.50
2022-08-04T22:20:02.725Z,2.30
2022-08-04T22:22:30.014Z,2.30
2022-08-04T22:25:01.157Z,3.20
2022-08-04T22:27:47.257Z,3.00
2022-08-04T22:30:17.671Z,3.42
2022-08-04T22:32:46.470Z,3.13
2022-08-04T22:35:35.611Z,3.35
2022-08-04T22:38:07.786Z,2.80
2022-08-04T22:40:47.581Z,3.10
2022-08-04T22:43:32.556Z,2.78
2022-08-04T22:45:59.822Z,3.08
2022-08-04T22:48:28.460Z,2.70
2022-08-04T22:50:58.962Z,2.95
2022-08-04T22:53:25.593Z,2.45
2022-08-04T22:56:06.781Z,2.95
2022-08-04T22:58:36.550Z,2.80
2022-08-04T23:01:07.528Z,2.45
2022-08-04T23:03:36.976Z,2.58
2022-08-04T23:06:06.506Z,3.10
2022-08-04T23:08:37.327Z,2.90
2022-08-04T23:11:08.155Z,2.60
2022-08-04T23:13:36.766Z,2.85
2022-08-04T23:16:09.666Z,2.70
2022-08-04T23:18:36.970Z,2.38
2022-08-04T23:21:09.785Z,3.00
2022-08-04T23:23:36.724Z,2.83
2022-08-04T23:26:14.698Z,2.95
2022-08-04T23:28:41.834Z,2.55
2022-08-04T23:31:10.132Z,2.65
2022-08-04T23:33:51.136Z,3.03
2022-08-04T23:36:29.705Z,2.88
2022-08-04T23:39:04.215Z,2.60
2022-08-04T23:41:53.739Z,2.53
2022-08-04T23:44:24.967Z,2.83
2022-08-04T23:47:03.333Z,2.78
2022-08-04T23:49:42.279Z,2.42
2022-08-04T23:52:27.559Z,2.92
2022-08-04T23:54:58.230Z,2.78
2022-08-04T23:57:25.316Z,2.83
2022-08-04T23:59:58.502Z,2.90
